createdAt,value
2017-12-21T00:00:29.514Z,5.71
2017-12-21T00:01:32.705Z,5.68
2017-12-21T00:02:29.518Z,5.68
2017-12-21T00:03:29.241Z,5.71
2017-12-21T00:04:29.487Z,5.69
2017-12-21T00:05:29.517Z,5.61
2017-12-21T00:06:29.221Z,5.64
2017-12-21T00:07:29.454Z,5.64
2017-12-21T00:08:29.445Z,5.69
2017-12-21T00:09:29.497Z,5.68
2017-12-21T00:10:29.186Z,5.72
2017-12-21T00:11:29.183Z,5.75
2017-12-21T00:12:29.172Z,5.72
2017-12-21T00:13:29.412Z,5.69
2017-12-21T00:14:29.164Z,5.76
2017-12-21T00:15:29.397Z,5.69
2017-12-21T00:16:29.145Z,5.72
2017-12-21T00:17:29.390Z,5.71
2017-12-21T00:18:28.883Z,5.73
2017-12-21T00:19:29.379Z,5.65
2017-12-21T00:20:29.365Z,5.66
2017-12-21T00:21:29.362Z,5.66
2017-12-21T00:22:29.349Z,5.69
2017-12-21T00:23:29.344Z,5.64
2017-12-21T00:24:28.830Z,5.65
2017-12-21T00:25:29.386Z,5.59
2017-12-21T00:26:29.324Z,5.66
2017-12-21T00:27:29.322Z,5.56
2017-12-21T00:28:29.310Z,5.65
2017-12-21T00:29:29.048Z,5.65
2017-12-21T00:30:29.039Z,5.56
2017-12-21T00:31:29.292Z,5.64
2017-12-21T00:32:29.033Z,5.57
2017-12-21T00:33:29.023Z,5.61
2017-12-21T00:34:29.031Z,5.65
2017-12-21T00:35:29.263Z,5.59
2017-12-21T00:36:29.258Z,5.64
2017-12-21T00:37:29.302Z,5.59
2017-12-21T00:38:28.988Z,5.64
2017-12-21T00:39:29.230Z,5.59
2017-12-21T00:40:28.975Z,5.64
2017-12-21T00:41:29.243Z,5.57
2017-12-21T00:42:29.253Z,5.59
2017-12-21T00:43:29.202Z,5.62
2017-12-21T00:44:29.202Z,5.66
2017-12-21T00:45:28.936Z,5.64
2017-12-21T00:46:28.945Z,5.59
2017-12-21T00:47:29.478Z,5.59
2017-12-21T00:48:29.167Z,5.61
2017-12-21T00:49:28.916Z,5.65
2017-12-21T00:50:28.903Z,5.59
2017-12-21T00:51:29.169Z,5.62
2017-12-21T00:52:28.631Z,5.56
2017-12-21T00:53:29.135Z,5.56
2017-12-21T00:54:28.881Z,5.64
2017-12-21T00:55:29.122Z,5.59
2017-12-21T00:56:29.120Z,5.59
2017-12-21T00:57:28.863Z,5.59
2017-12-21T00:58:28.854Z,5.59
2017-12-21T00:59:29.102Z,5.57
2017-12-21T01:00:29.089Z,5.59
2017-12-21T01:01:29.085Z,5.57
2017-12-21T01:02:30.695Z,5.56
2017-12-21T01:03:29.070Z,5.57
2017-12-21T01:04:29.062Z,5.56
2017-12-21T01:05:29.059Z,5.68
2017-12-21T01:06:28.544Z,5.66
2017-12-21T01:07:28.789Z,5.57
2017-12-21T01:08:28.780Z,5.62
2017-12-21T01:09:28.778Z,5.54
2017-12-21T01:10:29.021Z,5.56
2017-12-21T01:11:28.822Z,5.56
2017-12-21T01:12:29.004Z,5.64
2017-12-21T01:13:29.059Z,5.53
2017-12-21T01:14:29.043Z,5.48
2017-12-21T01:15:28.738Z,5.54
2017-12-21T01:16:28.989Z,5.46
2017-12-21T01:17:28.993Z,5.47
2017-12-21T01:18:28.714Z,5.47
2017-12-21T01:19:28.956Z,5.43
2017-12-21T01:20:28.952Z,5.41
2017-12-21T01:21:28.690Z,5.38
2017-12-21T01:22:28.941Z,5.33
2017-12-21T01:23:28.677Z,5.43
2017-12-21T01:24:28.932Z,5.41
2017-12-21T01:25:28.913Z,5.36
2017-12-21T01:26:28.905Z,5.43
2017-12-21T01:27:28.651Z,5.36
2017-12-21T01:28:28.640Z,5.44
2017-12-21T01:29:28.886Z,5.39
2017-12-21T01:30:28.879Z,5.41
2017-12-21T01:31:28.871Z,5.29
2017-12-21T01:32:30.112Z,5.36
2017-12-21T01:33:28.864Z,5.41
2017-12-21T01:34:28.849Z,5.44
2017-12-21T01:35:28.893Z,5.38
2017-12-21T01:36:28.832Z,5.43
2017-12-21T01:37:28.826Z,5.43
2017-12-21T01:38:28.564Z,5.51
2017-12-21T01:39:28.810Z,5.43
2017-12-21T01:40:28.806Z,5.44
2017-12-21T01:41:28.795Z,5.46
2017-12-21T01:42:28.787Z,5.46
2017-12-21T01:43:28.788Z,5.48
2017-12-21T01:44:28.779Z,5.5
2017-12-21T01:45:28.786Z,5.51
2017-12-21T01:46:28.796Z,5.54
2017-12-21T01:47:28.864Z,5.53
2017-12-21T01:48:28.744Z,5.48
2017-12-21T01:49:28.741Z,5.5
2017-12-21T01:50:28.732Z,5.44
2017-12-21T01:51:28.735Z,5.46
2017-12-21T01:52:28.210Z,5.46
2017-12-21T01:53:28.712Z,5.43
2017-12-21T01:54:28.705Z,5.51
2017-12-21T01:55:28.441Z,5.44
2017-12-21T01:56:28.743Z,5.33
2017-12-21T01:57:28.428Z,5.46
2017-12-21T01:58:28.436Z,5.39
2017-12-21T01:59:28.672Z,5.46
2017-12-21T02:00:28.420Z,5.32
2017-12-21T02:01:28.654Z,5.41
2017-12-21T02:02:30.644Z,5.32
2017-12-21T02:03:28.637Z,5.36
2017-12-21T02:04:28.635Z,5.38
2017-12-21T02:05:28.637Z,5.3
2017-12-21T02:06:28.618Z,5.3
2017-12-21T02:07:28.365Z,5.3
2017-12-21T02:08:28.350Z,5.29
2017-12-21T02:09:28.602Z,5.3
2017-12-21T02:10:28.334Z,5.38
2017-12-21T02:11:28.579Z,5.41
2017-12-21T02:12:28.574Z,5.39
2017-12-21T02:13:28.603Z,5.41
2017-12-21T02:14:28.329Z,5.35
2017-12-21T02:15:28.561Z,5.26
2017-12-21T02:16:28.538Z,5.25
2017-12-21T02:17:28.536Z,5.3
2017-12-21T02:18:28.275Z,5.35
2017-12-21T02:19:28.527Z,5.29
2017-12-21T02:20:28.530Z,5.25
2017-12-21T02:21:28.507Z,5.29
2017-12-21T02:22:28.509Z,5.3
2017-12-21T02:23:28.503Z,5.35
2017-12-21T02:24:28.486Z,5.28
2017-12-21T02:25:28.485Z,5.32
2017-12-21T02:26:28.485Z,5.28
2017-12-21T02:27:28.460Z,5.28
2017-12-21T02:28:28.450Z,5.33
2017-12-21T02:29:28.189Z,5.38
2017-12-21T02:30:28.437Z,5.39
2017-12-21T02:31:28.439Z,5.41
2017-12-21T02:32:28.450Z,5.51
2017-12-21T02:33:28.419Z,5.47
2017-12-21T02:34:28.155Z,5.47
2017-12-21T02:35:28.164Z,5.48
2017-12-21T02:36:28.405Z,5.48
2017-12-21T02:37:28.388Z,5.48
2017-12-21T02:38:28.135Z,5.56
2017-12-21T02:39:28.384Z,5.64
2017-12-21T02:40:28.386Z,5.47
2017-12-21T02:41:28.354Z,5.47
2017-12-21T02:42:28.347Z,5.59
2017-12-21T02:43:28.355Z,5.56
2017-12-21T02:44:28.342Z,5.56
2017-12-21T02:45:28.084Z,5.61
2017-12-21T02:46:28.321Z,5.5
2017-12-21T02:47:28.328Z,5.51
2017-12-21T02:48:28.057Z,5.53
2017-12-21T02:49:28.056Z,5.5
2017-12-21T02:50:28.048Z,5.64
2017-12-21T02:51:28.295Z,5.46
2017-12-21T02:52:28.277Z,5.48
2017-12-21T02:53:28.279Z,5.65
2017-12-21T02:54:28.272Z,5.59
2017-12-21T02:55:28.269Z,5.53
2017-12-21T02:56:27.998Z,5.48
2017-12-21T02:57:28.254Z,5.59
2017-12-21T02:58:28.239Z,5.51
2017-12-21T02:59:28.230Z,5.51
2017-12-21T03:00:27.976Z,5.51
2017-12-21T03:01:28.227Z,5.57
2017-12-21T03:02:27.965Z,5.47
2017-12-21T03:03:29.807Z,5.46
2017-12-21T03:04:28.211Z,5.53
2017-12-21T03:05:28.198Z,5.5
2017-12-21T03:06:28.202Z,5.44
2017-12-21T03:07:27.931Z,5.47
2017-12-21T03:08:27.930Z,5.53
2017-12-21T03:09:27.908Z,5.46
2017-12-21T03:10:28.160Z,5.5
2017-12-21T03:11:28.145Z,5.48
2017-12-21T03:12:28.138Z,5.53
2017-12-21T03:13:28.138Z,5.5
2017-12-21T03:14:28.137Z,5.53
2017-12-21T03:15:28.132Z,5.56
2017-12-21T03:16:28.134Z,5.56
2017-12-21T03:17:27.601Z,5.57
2017-12-21T03:18:27.903Z,5.56
2017-12-21T03:19:28.090Z,5.54
2017-12-21T03:20:28.084Z,5.53
2017-12-21T03:21:28.082Z,5.57
2017-12-21T03:22:28.072Z,5.54
2017-12-21T03:23:28.070Z,5.54
2017-12-21T03:24:28.070Z,5.54
2017-12-21T03:25:28.044Z,5.46
2017-12-21T03:26:27.537Z,5.53
2017-12-21T03:27:28.035Z,5.56
2017-12-21T03:28:28.027Z,5.57
2017-12-21T03:29:28.017Z,5.57
2017-12-21T03:30:28.025Z,5.56
2017-12-21T03:31:28.026Z,5.59
2017-12-21T03:32:28.001Z,5.64
2017-12-21T03:33:28.297Z,5.64
2017-12-21T03:34:27.986Z,5.53
2017-12-21T03:35:27.978Z,5.62
2017-12-21T03:36:27.969Z,5.56
2017-12-21T03:37:27.460Z,5.59
2017-12-21T03:38:28.756Z,5.57
2017-12-21T03:39:27.951Z,5.66
2017-12-21T03:40:27.949Z,5.68
2017-12-21T03:41:27.934Z,5.71
2017-12-21T03:42:27.931Z,5.64
2017-12-21T03:43:27.924Z,5.65
2017-12-21T03:44:27.409Z,5.71
2017-12-21T03:45:27.903Z,5.66
2017-12-21T03:46:27.901Z,5.57
2017-12-21T03:47:27.904Z,5.68
2017-12-21T03:48:27.891Z,5.68
2017-12-21T03:49:27.879Z,5.68
2017-12-21T03:50:27.367Z,5.66
2017-12-21T03:51:27.876Z,5.66
2017-12-21T03:52:27.854Z,5.69
2017-12-21T03:53:27.861Z,5.71
2017-12-21T03:54:27.845Z,5.62
2017-12-21T03:55:27.584Z,5.61
2017-12-21T03:56:27.575Z,5.62
2017-12-21T03:57:27.828Z,5.62
2017-12-21T03:58:27.816Z,5.59
2017-12-21T03:59:27.558Z,5.57
2017-12-21T04:00:27.801Z,5.59
2017-12-21T04:01:27.551Z,5.69
2017-12-21T04:02:27.788Z,5.64
2017-12-21T04:03:27.792Z,5.68
2017-12-21T04:04:27.528Z,5.65
2017-12-21T04:05:27.772Z,5.64
2017-12-21T04:06:27.512Z,5.64
2017-12-21T04:07:27.763Z,5.64
2017-12-21T04:08:27.753Z,5.59
2017-12-21T04:09:27.747Z,5.59
2017-12-21T04:10:27.732Z,5.64
2017-12-21T04:11:27.471Z,5.62
2017-12-21T04:12:27.717Z,5.56
2017-12-21T04:13:27.456Z,5.54
2017-12-21T04:14:27.451Z,5.46
2017-12-21T04:15:27.700Z,5.62
2017-12-21T04:16:27.437Z,5.61
2017-12-21T04:17:27.685Z,5.54
2017-12-21T04:18:27.678Z,5.57
2017-12-21T04:19:27.665Z,5.59
2017-12-21T04:20:27.661Z,5.62
2017-12-21T04:21:27.662Z,5.66
2017-12-21T04:22:27.648Z,5.73
2017-12-21T04:23:27.647Z,5.73
2017-12-21T04:24:27.631Z,5.68
2017-12-21T04:25:27.382Z,5.68
2017-12-21T04:26:27.619Z,5.71
2017-12-21T04:27:27.617Z,5.66
2017-12-21T04:28:27.610Z,5.68
2017-12-21T04:29:27.350Z,5.68
2017-12-21T04:30:27.607Z,5.62
2017-12-21T04:31:27.581Z,5.65
2017-12-21T04:32:27.576Z,5.62
2017-12-21T04:33:27.313Z,5.66
2017-12-21T04:34:29.392Z,5.75
2017-12-21T04:35:27.304Z,5.71
2017-12-21T04:36:27.550Z,5.69
2017-12-21T04:37:27.301Z,5.76
2017-12-21T04:38:27.309Z,5.76
2017-12-21T04:39:28.091Z,5.64
2017-12-21T04:40:27.263Z,5.71
2017-12-21T04:41:27.256Z,5.62
2017-12-21T04:42:27.248Z,5.82
2017-12-21T04:43:27.307Z,5.8
2017-12-21T04:44:27.248Z,5.72
2017-12-21T04:45:27.485Z,5.73
2017-12-21T04:46:27.487Z,5.72
2017-12-21T04:47:27.479Z,5.68
2017-12-21T04:48:27.467Z,5.65
2017-12-21T04:49:28.805Z,5.64
2017-12-21T04:50:27.445Z,5.69
2017-12-21T04:51:27.198Z,5.75
2017-12-21T04:52:27.436Z,5.71
2017-12-21T04:53:27.425Z,5.57
2017-12-21T04:54:27.420Z,5.68
2017-12-21T04:55:27.409Z,5.66
2017-12-21T04:56:27.154Z,5.64
2017-12-21T04:57:27.397Z,5.69
2017-12-21T04:58:27.137Z,5.64
2017-12-21T04:59:27.139Z,5.61
2017-12-21T05:00:27.377Z,5.62
2017-12-21T05:01:27.381Z,5.56
2017-12-21T05:02:27.124Z,5.66
2017-12-21T05:03:27.366Z,5.54
2017-12-21T05:04:27.345Z,5.56
2017-12-21T05:05:27.336Z,5.56
2017-12-21T05:06:27.374Z,5.59
2017-12-21T05:07:27.072Z,5.61
2017-12-21T05:08:27.326Z,5.5
2017-12-21T05:09:27.312Z,5.59
2017-12-21T05:10:27.052Z,5.71
2017-12-21T05:11:27.307Z,5.66
2017-12-21T05:12:27.292Z,5.66
2017-12-21T05:13:27.287Z,5.66
2017-12-21T05:14:27.283Z,5.62
2017-12-21T05:15:27.029Z,5.68
2017-12-21T05:16:27.025Z,5.68
2017-12-21T05:17:27.250Z,5.68
2017-12-21T05:18:27.248Z,5.76
2017-12-21T05:19:27.233Z,5.71
2017-12-21T05:20:27.224Z,5.75
2017-12-21T05:21:27.222Z,5.72
2017-12-21T05:22:26.724Z,5.69
2017-12-21T05:23:27.220Z,5.71
2017-12-21T05:24:27.199Z,5.61
2017-12-21T05:25:27.196Z,5.73
2017-12-21T05:26:26.930Z,5.69
2017-12-21T05:27:26.676Z,5.66
2017-12-21T05:28:27.175Z,5.73
2017-12-21T05:29:27.168Z,5.69
2017-12-21T05:30:27.162Z,5.65
2017-12-21T05:31:27.162Z,5.64
2017-12-21T05:32:27.141Z,5.72
2017-12-21T05:33:27.149Z,5.66
2017-12-21T05:34:26.876Z,5.65
2017-12-21T05:35:27.124Z,5.73
2017-12-21T05:36:27.122Z,5.61
2017-12-21T05:37:27.121Z,5.69
2017-12-21T05:38:27.123Z,5.68
2017-12-21T05:39:26.844Z,5.73
2017-12-21T05:40:27.096Z,5.68
2017-12-21T05:41:27.090Z,5.66
2017-12-21T05:42:27.087Z,5.59
2017-12-21T05:43:26.822Z,5.62
2017-12-21T05:44:27.069Z,5.65
2017-12-21T05:45:27.055Z,5.62
2017-12-21T05:46:27.061Z,5.71
2017-12-21T05:47:27.059Z,5.68
2017-12-21T05:48:27.049Z,5.65
2017-12-21T05:49:27.043Z,5.68
2017-12-21T05:50:26.506Z,5.65
2017-12-21T05:51:27.069Z,5.71
2017-12-21T05:52:27.011Z,5.65
2017-12-21T05:53:27.023Z,5.73
2017-12-21T05:54:26.998Z,5.66
2017-12-21T05:55:26.728Z,5.72
2017-12-21T05:56:26.985Z,5.71
2017-12-21T05:57:26.721Z,5.73
2017-12-21T05:58:26.958Z,5.79
2017-12-21T05:59:26.960Z,5.69
2017-12-21T06:00:26.962Z,5.68
2017-12-21T06:01:26.946Z,5.65
2017-12-21T06:02:26.936Z,5.72
2017-12-21T06:03:26.669Z,5.72
2017-12-21T06:04:26.671Z,5.68
2017-12-21T06:05:30.008Z,5.68
2017-12-21T06:06:26.402Z,5.66
2017-12-21T06:07:26.893Z,5.68
2017-12-21T06:08:26.888Z,5.65
2017-12-21T06:09:26.627Z,5.64
2017-12-21T06:10:26.619Z,5.65
2017-12-21T06:11:26.866Z,5.66
2017-12-21T06:12:26.615Z,5.68
2017-12-21T06:13:26.863Z,5.69
2017-12-21T06:14:26.846Z,5.73
2017-12-21T06:15:26.597Z,5.76
2017-12-21T06:16:26.576Z,5.69
2017-12-21T06:17:26.829Z,5.75
2017-12-21T06:18:26.817Z,5.68
2017-12-21T06:19:26.812Z,5.8
2017-12-21T06:20:26.810Z,5.72
2017-12-21T06:21:26.793Z,5.69
2017-12-21T06:22:26.792Z,5.72
2017-12-21T06:23:26.796Z,5.73
2017-12-21T06:24:26.522Z,5.69
2017-12-21T06:25:26.770Z,5.71
2017-12-21T06:26:26.515Z,5.79
2017-12-21T06:27:26.758Z,5.76
2017-12-21T06:28:26.507Z,5.71
2017-12-21T06:29:26.516Z,5.76
2017-12-21T06:30:26.557Z,5.86
2017-12-21T06:31:26.734Z,5.86
2017-12-21T06:32:26.237Z,5.86
2017-12-21T06:33:26.715Z,5.86
2017-12-21T06:34:26.726Z,5.83
2017-12-21T06:35:29.632Z,5.86
2017-12-21T06:36:26.705Z,5.82
2017-12-21T06:37:26.704Z,5.82
2017-12-21T06:38:26.691Z,5.8
2017-12-21T06:39:26.682Z,5.76
2017-12-21T06:40:26.673Z,5.84
2017-12-21T06:41:26.424Z,5.82
2017-12-21T06:42:26.407Z,5.76
2017-12-21T06:43:26.665Z,5.73
2017-12-21T06:44:26.636Z,5.73
2017-12-21T06:45:26.671Z,5.64
2017-12-21T06:46:26.643Z,5.62
2017-12-21T06:47:26.131Z,5.64
2017-12-21T06:48:26.128Z,5.66
2017-12-21T06:49:26.376Z,5.62
2017-12-21T06:50:26.363Z,5.65
2017-12-21T06:51:26.607Z,5.62
2017-12-21T06:52:26.351Z,5.61
2017-12-21T06:53:26.345Z,5.59
2017-12-21T06:54:26.585Z,5.62
2017-12-21T06:55:26.572Z,5.64
2017-12-21T06:56:26.318Z,5.61
2017-12-21T06:57:26.552Z,5.61
2017-12-21T06:58:26.565Z,5.69
2017-12-21T06:59:26.538Z,5.69
2017-12-21T07:00:26.281Z,5.61
2017-12-21T07:01:26.519Z,5.69
2017-12-21T07:02:26.281Z,5.71
2017-12-21T07:03:26.507Z,5.73
2017-12-21T07:04:26.260Z,5.79
2017-12-21T07:05:26.501Z,5.76
2017-12-21T07:06:26.525Z,5.75
2017-12-21T07:07:26.251Z,5.69
2017-12-21T07:08:25.971Z,5.68
2017-12-21T07:09:26.459Z,5.62
2017-12-21T07:10:26.465Z,5.73
2017-12-21T07:11:25.945Z,5.64
2017-12-21T07:12:26.462Z,5.56
2017-12-21T07:13:26.459Z,5.59
2017-12-21T07:14:26.442Z,5.59
2017-12-21T07:15:26.162Z,5.56
2017-12-21T07:16:26.416Z,5.61
2017-12-21T07:17:26.410Z,5.57
2017-12-21T07:18:26.414Z,5.68
2017-12-21T07:19:26.463Z,5.69
2017-12-21T07:20:26.375Z,5.69
2017-12-21T07:21:26.370Z,5.71
2017-12-21T07:22:26.364Z,5.68
2017-12-21T07:23:26.101Z,5.69
2017-12-21T07:24:26.405Z,5.76
2017-12-21T07:25:26.348Z,5.72
2017-12-21T07:26:26.332Z,5.8
2017-12-21T07:27:26.325Z,5.86
2017-12-21T07:28:26.323Z,5.94
2017-12-21T07:29:26.312Z,5.93
2017-12-21T07:30:26.058Z,5.93
2017-12-21T07:31:26.315Z,6.01
2017-12-21T07:32:26.293Z,5.98
2017-12-21T07:33:26.034Z,6.01
2017-12-21T07:34:26.023Z,5.98
2017-12-21T07:35:26.272Z,5.97
2017-12-21T07:36:28.366Z,6.01
2017-12-21T07:37:26.264Z,6.02
2017-12-21T07:38:26.255Z,6.02
2017-12-21T07:39:26.242Z,5.98
2017-12-21T07:40:26.239Z,6.01
2017-12-21T07:41:26.227Z,5.97
2017-12-21T07:42:26.224Z,5.99
2017-12-21T07:43:25.967Z,6.02
2017-12-21T07:44:25.974Z,6.02
2017-12-21T07:45:26.201Z,6.12
2017-12-21T07:46:26.196Z,6.14
2017-12-21T07:47:26.186Z,6.14
2017-12-21T07:48:26.217Z,6.04
2017-12-21T07:49:26.171Z,6.07
2017-12-21T07:50:26.168Z,6.07
2017-12-21T07:51:26.175Z,6.12
2017-12-21T07:52:26.156Z,6.14
2017-12-21T07:53:26.258Z,6.12
2017-12-21T07:54:26.142Z,6.19
2017-12-21T07:55:26.131Z,6.14
2017-12-21T07:56:26.127Z,6.14
2017-12-21T07:57:25.876Z,6.14
2017-12-21T07:58:26.115Z,6.27
2017-12-21T07:59:26.109Z,6.22
2017-12-21T08:00:26.184Z,6.22
2017-12-21T08:01:26.122Z,6.27
2017-12-21T08:02:26.098Z,6.26
2017-12-21T08:03:26.080Z,6.28
2017-12-21T08:04:26.072Z,6.2
2017-12-21T08:05:26.064Z,6.3
2017-12-21T08:06:28.710Z,6.28
2017-12-21T08:07:26.052Z,6.27
2017-12-21T08:08:26.051Z,6.41
2017-12-21T08:09:25.788Z,6.22
2017-12-21T08:10:26.031Z,6.39
2017-12-21T08:11:26.031Z,6.38
2017-12-21T08:12:26.019Z,6.39
2017-12-21T08:13:26.021Z,6.42
2017-12-21T08:14:26.012Z,6.39
2017-12-21T08:15:26.010Z,6.33
2017-12-21T08:16:26.004Z,6.31
2017-12-21T08:17:25.755Z,6.33
2017-12-21T08:18:25.986Z,6.41
2017-12-21T08:19:26.038Z,6.35
2017-12-21T08:20:25.976Z,6.36
2017-12-21T08:21:25.711Z,6.3
2017-12-21T08:22:25.716Z,6.36
2017-12-21T08:23:25.695Z,6.39
2017-12-21T08:24:25.952Z,6.42
2017-12-21T08:25:25.958Z,6.38
2017-12-21T08:26:25.963Z,6.42
2017-12-21T08:27:25.923Z,6.42
2017-12-21T08:28:25.925Z,6.44
2017-12-21T08:29:25.921Z,6.35
2017-12-21T08:30:25.909Z,6.38
2017-12-21T08:31:25.646Z,6.36
2017-12-21T08:32:25.901Z,6.41
2017-12-21T08:33:25.639Z,6.41
2017-12-21T08:34:25.894Z,6.36
2017-12-21T08:35:25.387Z,6.46
2017-12-21T08:37:25.866Z,6.39
2017-12-21T08:38:25.867Z,6.39
2017-12-21T08:39:25.851Z,6.38
2017-12-21T08:40:25.916Z,6.41
2017-12-21T08:41:25.835Z,6.33
2017-12-21T08:42:25.837Z,6.44
2017-12-21T08:43:25.821Z,6.42
2017-12-21T08:44:25.846Z,6.44
2017-12-21T08:45:25.819Z,6.42
2017-12-21T08:46:25.803Z,6.35
2017-12-21T08:47:25.820Z,6.44
2017-12-21T08:48:25.546Z,6.42
2017-12-21T08:49:25.787Z,6.52
2017-12-21T08:50:25.774Z,6.44
2017-12-21T08:51:25.768Z,6.45
2017-12-21T08:52:25.769Z,6.54
2017-12-21T08:53:25.504Z,6.46
2017-12-21T08:54:25.749Z,6.45
2017-12-21T08:55:25.755Z,6.45
2017-12-21T08:56:25.741Z,6.51
2017-12-21T08:57:25.500Z,6.63
2017-12-21T08:58:25.772Z,6.56
2017-12-21T08:59:25.722Z,6.57
2017-12-21T09:00:25.721Z,6.66
2017-12-21T09:01:25.706Z,6.51
2017-12-21T09:02:25.731Z,6.56
2017-12-21T09:03:25.694Z,6.59
2017-12-21T09:04:25.742Z,6.62
2017-12-21T09:05:25.690Z,6.63
2017-12-21T09:06:25.676Z,6.63
2017-12-21T09:07:27.729Z,6.72
2017-12-21T09:08:25.664Z,6.75
2017-12-21T09:09:25.409Z,6.66
2017-12-21T09:10:25.656Z,6.67
2017-12-21T09:11:25.644Z,6.66
2017-12-21T09:12:25.639Z,6.67
2017-12-21T09:13:25.629Z,6.64
2017-12-21T09:14:25.388Z,6.7
2017-12-21T09:15:25.627Z,6.7
2017-12-21T09:16:25.617Z,6.66
2017-12-21T09:17:25.613Z,6.63
2017-12-21T09:18:25.351Z,6.67
2017-12-21T09:19:25.598Z,6.72
2017-12-21T09:20:25.593Z,6.64
2017-12-21T09:21:25.342Z,6.7
2017-12-21T09:22:25.580Z,6.75
2017-12-21T09:23:25.573Z,6.75
2017-12-21T09:24:25.567Z,6.75
2017-12-21T09:25:25.562Z,6.67
2017-12-21T09:26:25.553Z,6.67
2017-12-21T09:27:25.554Z,6.75
2017-12-21T09:28:25.287Z,6.63
2017-12-21T09:29:25.555Z,6.67
2017-12-21T09:30:25.530Z,6.64
2017-12-21T09:31:25.520Z,6.7
2017-12-21T09:32:25.522Z,6.72
2017-12-21T09:33:25.273Z,6.74
2017-12-21T09:34:25.510Z,6.78
2017-12-21T09:35:25.247Z,6.78
2017-12-21T09:36:25.489Z,6.87
2017-12-21T09:37:28.935Z,6.85
2017-12-21T09:38:25.484Z,6.72
2017-12-21T09:39:25.221Z,6.88
2017-12-21T09:40:25.467Z,6.87
2017-12-21T09:41:25.225Z,6.92
2017-12-21T09:42:24.971Z,6.89
2017-12-21T09:43:25.449Z,6.99
2017-12-21T09:44:25.439Z,7
2017-12-21T09:45:25.435Z,7
2017-12-21T09:46:25.184Z,7.03
2017-12-21T09:47:25.428Z,7.13
2017-12-21T09:48:25.421Z,7.07
2017-12-21T09:49:25.158Z,7.1
2017-12-21T09:50:25.409Z,7.06
2017-12-21T09:51:25.406Z,7.15
2017-12-21T09:52:25.485Z,7.14
2017-12-21T09:53:25.143Z,7.17
2017-12-21T09:54:25.396Z,7.29
2017-12-21T09:55:25.128Z,7.28
2017-12-21T09:56:25.125Z,7.24
2017-12-21T09:57:25.373Z,7.25
2017-12-21T09:58:25.365Z,7.33
2017-12-21T09:59:25.365Z,7.38
2017-12-21T10:00:25.097Z,7.38
2017-12-21T10:01:25.111Z,7.51
2017-12-21T10:02:25.096Z,7.51
2017-12-21T10:03:25.083Z,7.53
2017-12-21T10:04:25.080Z,7.54
2017-12-21T10:05:25.335Z,7.56
2017-12-21T10:06:25.078Z,7.72
2017-12-21T10:07:25.315Z,7.69
2017-12-21T10:08:25.511Z,7.82
2017-12-21T10:09:25.310Z,7.77
2017-12-21T10:10:25.316Z,7.83
2017-12-21T10:11:25.045Z,7.83
2017-12-21T10:12:25.284Z,7.8
2017-12-21T10:13:25.285Z,7.85
2017-12-21T10:14:25.028Z,7.88
2017-12-21T10:15:25.272Z,7.95
2017-12-21T10:16:25.274Z,7.85
2017-12-21T10:17:25.261Z,7.98
2017-12-21T10:18:25.013Z,7.94
2017-12-21T10:19:25.255Z,7.98
2017-12-21T10:20:25.252Z,8.03
2017-12-21T10:21:24.989Z,7.95
2017-12-21T10:22:25.242Z,7.97
2017-12-21T10:52:44.747Z,8
2017-12-21T10:53:44.492Z,7.98
2017-12-21T10:54:44.209Z,8
2017-12-21T10:55:44.199Z,8.05
2017-12-21T10:56:44.456Z,7.97
2017-12-21T10:57:44.444Z,7.93
2017-12-21T10:58:44.436Z,7.97
2017-12-21T10:59:44.428Z,8.01
2017-12-21T11:00:44.437Z,8.01
2017-12-21T11:01:44.425Z,8.01
2017-12-21T11:02:44.404Z,8.03
2017-12-21T11:03:43.883Z,8.03
2017-12-21T11:04:44.126Z,7.98
2017-12-21T11:05:44.382Z,8
2017-12-21T11:06:44.117Z,8.06
2017-12-21T11:07:43.857Z,8.03
2017-12-21T11:08:44.371Z,8.03
2017-12-21T11:09:44.105Z,8.08
2017-12-21T11:10:44.343Z,8.05
2017-12-21T11:11:44.132Z,8.01
2017-12-21T11:12:44.080Z,8.03
2017-12-21T11:13:44.322Z,8.01
2017-12-21T11:14:44.320Z,8.19
2017-12-21T11:15:44.315Z,8.16
2017-12-21T11:16:44.316Z,8.19
2017-12-21T11:17:44.306Z,8.18
2017-12-21T11:18:44.294Z,8.2
2017-12-21T11:19:44.292Z,8.16
2017-12-21T11:20:44.298Z,8.24
2017-12-21T11:21:44.286Z,8.18
2017-12-21T11:22:46.172Z,8.18
2017-12-21T11:23:44.264Z,8.2
2017-12-21T11:24:43.757Z,8.2
2017-12-21T11:25:44.254Z,8.24
2017-12-21T11:26:43.751Z,8.3
2017-12-21T11:27:44.246Z,8.24
2017-12-21T11:28:43.991Z,8.33
2017-12-21T11:29:44.238Z,8.28
2017-12-21T11:30:44.252Z,8.2
2017-12-21T11:31:44.239Z,8.26
2017-12-21T11:32:44.297Z,8.18
2017-12-21T11:33:44.220Z,8.16
2017-12-21T11:34:44.212Z,8.1
2017-12-21T11:35:44.206Z,8.15
2017-12-21T11:36:44.202Z,8.09
2017-12-21T11:37:44.201Z,8.05
2017-12-21T11:38:43.947Z,8.05
2017-12-21T11:39:43.931Z,8.1
2017-12-21T11:40:43.678Z,7.97
2017-12-21T11:41:43.676Z,8.06
2017-12-21T11:42:44.172Z,7.93
2017-12-21T11:43:44.169Z,8
2017-12-21T11:44:44.163Z,8.01
2017-12-21T11:45:44.161Z,8
2017-12-21T11:46:43.913Z,7.97
2017-12-21T11:47:44.155Z,8.08
2017-12-21T11:48:44.145Z,7.95
2017-12-21T11:49:44.145Z,8.01
2017-12-21T11:50:43.882Z,7.9
2017-12-21T11:51:44.142Z,7.98
2017-12-21T11:52:44.174Z,7.91
2017-12-21T11:53:44.122Z,7.93
2017-12-21T11:54:44.124Z,7.93
2017-12-21T11:55:43.861Z,7.94
2017-12-21T11:56:43.850Z,7.94
2017-12-21T11:57:44.102Z,7.93
2017-12-21T11:58:44.104Z,7.95
2017-12-21T11:59:44.095Z,7.85
2017-12-21T12:00:44.102Z,7.82
2017-12-21T12:01:44.100Z,7.94
2017-12-21T12:02:43.625Z,7.8
2017-12-21T12:03:44.072Z,7.94
2017-12-21T12:04:43.809Z,7.95
2017-12-21T12:05:43.804Z,8.03
2017-12-21T12:06:43.801Z,7.98
2017-12-21T12:07:44.054Z,7.98
2017-12-21T12:08:43.791Z,8.01
2017-12-21T12:09:44.043Z,7.98
2017-12-21T12:10:43.797Z,7.98
2017-12-21T12:11:44.035Z,7.98
2017-12-21T12:12:44.020Z,8.06
2017-12-21T12:13:43.766Z,8.06
2017-12-21T12:14:43.760Z,8.16
2017-12-21T12:15:44.006Z,8.16
2017-12-21T12:16:43.763Z,8.24
2017-12-21T12:17:43.782Z,8.26
2017-12-21T12:18:44.027Z,8.3
2017-12-21T12:19:43.999Z,8.34
2017-12-21T12:20:43.489Z,8.31
2017-12-21T12:21:43.987Z,8.38
2017-12-21T12:22:45.184Z,8.37
2017-12-21T12:23:43.727Z,8.44
2017-12-21T12:24:43.982Z,8.44
2017-12-21T12:25:43.961Z,8.48
2017-12-21T12:26:43.700Z,8.41
2017-12-21T12:27:43.959Z,8.38
2017-12-21T12:28:43.959Z,8.44
2017-12-21T12:29:43.690Z,8.41
2017-12-21T12:30:43.946Z,8.41
2017-12-21T12:31:43.943Z,8.49
2017-12-21T12:32:43.928Z,8.46
2017-12-21T12:33:43.674Z,8.42
2017-12-21T12:34:43.917Z,8.41
2017-12-21T12:35:43.663Z,8.42
2017-12-21T12:36:43.407Z,8.44
2017-12-21T12:37:43.460Z,8.38
2017-12-21T12:38:43.904Z,8.44
2017-12-21T12:39:43.908Z,8.48
2017-12-21T12:40:43.640Z,8.42
2017-12-21T12:41:43.885Z,8.45
2017-12-21T12:42:43.892Z,8.45
2017-12-21T12:43:43.877Z,8.42
2017-12-21T12:44:43.629Z,8.46
2017-12-21T12:45:43.869Z,8.46
2017-12-21T12:46:43.865Z,8.52
2017-12-21T12:47:43.861Z,8.49
2017-12-21T12:48:43.863Z,8.58
2017-12-21T12:49:43.864Z,8.58
2017-12-21T12:50:43.599Z,8.51
2017-12-21T12:51:43.600Z,8.56
2017-12-21T12:52:44.900Z,8.55
2017-12-21T12:53:43.839Z,8.61
2017-12-21T12:54:43.591Z,8.46
2017-12-21T12:55:43.833Z,8.52
2017-12-21T12:56:43.828Z,8.53
2017-12-21T12:57:43.823Z,8.38
2017-12-21T12:58:43.821Z,8.52
2017-12-21T12:59:43.812Z,8.45
2017-12-21T13:00:43.560Z,8.38
2017-12-21T13:01:43.546Z,8.37
2017-12-21T13:02:43.816Z,8.41
2017-12-21T13:03:43.811Z,8.42
2017-12-21T13:04:43.814Z,8.48
2017-12-21T13:05:43.787Z,8.38
2017-12-21T13:06:43.791Z,8.36
2017-12-21T13:07:43.535Z,8.42
2017-12-21T13:08:43.548Z,8.38
2017-12-21T13:09:43.779Z,8.44
2017-12-21T13:10:43.514Z,8.42
2017-12-21T13:11:43.759Z,8.36
2017-12-21T13:12:43.509Z,8.38
2017-12-21T13:13:43.883Z,8.41
2017-12-21T13:14:43.496Z,8.37
2017-12-21T13:15:43.756Z,8.37
2017-12-21T13:16:43.245Z,8.42
2017-12-21T13:17:43.482Z,8.3
2017-12-21T13:18:43.506Z,8.19
2017-12-21T13:19:43.877Z,8.15
2017-12-21T13:20:43.717Z,8.15
2017-12-21T13:21:43.823Z,8.12
2017-12-21T13:22:43.706Z,8.16
2017-12-21T13:23:43.525Z,8.03
2017-12-21T13:24:43.710Z,8.09
2017-12-21T13:25:43.482Z,8.06
2017-12-21T13:26:43.489Z,7.94
2017-12-21T13:27:43.717Z,8.01
2017-12-21T13:28:43.713Z,7.98
2017-12-21T13:29:43.775Z,7.94
2017-12-21T13:30:43.673Z,8.03
2017-12-21T13:31:43.172Z,8.06
2017-12-21T13:32:43.709Z,8.01
2017-12-21T13:33:43.403Z,8.03
2017-12-21T13:34:43.417Z,8.05
2017-12-21T13:35:43.399Z,8.19
2017-12-21T13:36:43.707Z,8.09
2017-12-21T13:37:43.453Z,8.13
2017-12-21T13:38:48.442Z,8.08
2017-12-21T13:39:43.132Z,8.13
2017-12-21T13:40:43.428Z,8.18
2017-12-21T13:41:43.630Z,8.15
2017-12-21T13:42:43.698Z,8.05
2017-12-21T13:43:43.613Z,8.16
2017-12-21T13:44:43.359Z,8.15
2017-12-21T13:45:43.351Z,8.2
2017-12-21T13:46:43.345Z,8.23
2017-12-21T13:47:43.600Z,8.18
2017-12-21T13:48:43.115Z,8.13
2017-12-21T13:49:43.351Z,8.16
2017-12-21T13:50:43.333Z,8.19